createdAt,value
2022-10-19T00:01:49.654Z,4.50
2022-10-19T00:04:37.332Z,4.38
2022-10-19T00:07:24.994Z,4.18
2022-10-19T00:10:12.824Z,3.92
2022-10-19T00:13:02.017Z,4.38
2022-10-19T00:15:49.558Z,4.57
2022-10-19T00:18:37.169Z,4.03
2022-10-19T00:21:25.016Z,4.07
2022-10-19T00:24:13.026Z,4.43
2022-10-19T00:27:00.841Z,3.80
2022-10-19T00:29:50.192Z,3.85
2022-10-19T00:32:37.880Z,4.00
2022-10-19T00:35:25.380Z,4.22
2022-10-19T00:38:12.857Z,3.63
2022-10-19T00:41:00.475Z,3.78
2022-10-19T00:44:03.525Z,4.25
2022-10-19T00:46:53.181Z,3.97
2022-10-19T00:49:46.629Z,4.38
2022-10-19T00:52:34.417Z,4.35
2022-10-19T00:55:22.647Z,4.28
2022-10-19T00:58:11.004Z,3.70
2022-10-19T01:01:00.494Z,4.32
2022-10-19T01:03:50.032Z,4.30
2022-10-19T01:06:38.635Z,4.25
2022-10-19T01:09:26.351Z,3.58
2022-10-19T01:12:36.452Z,3.72
2022-10-19T01:15:37.193Z,3.67
2022-10-19T01:18:39.423Z,4.13
2022-10-19T01:21:35.895Z,3.08
2022-10-19T01:24:46.741Z,3.38
2022-10-19T01:28:04.274Z,4.07
2022-10-19T01:31:03.649Z,3.40
2022-10-19T01:34:03.765Z,3.50
2022-10-19T01:37:03.917Z,3.95
2022-10-19T01:40:00.483Z,3.53
2022-10-19T01:42:59.623Z,3.45
2022-10-19T01:45:55.680Z,4.03
2022-10-19T01:48:52.076Z,3.90
2022-10-19T01:51:50.845Z,3.83
2022-10-19T01:54:44.013Z,3.15
2022-10-19T01:57:38.523Z,3.22
2022-10-19T02:00:30.308Z,3.13
2022-10-19T02:03:21.491Z,4.00
2022-10-19T02:06:12.119Z,3.30
2022-10-19T02:09:00.181Z,3.83
2022-10-19T02:11:53.399Z,3.97
2022-10-19T02:14:48.688Z,4.15
2022-10-19T02:17:43.283Z,3.67
2022-10-19T02:20:32.498Z,3.30
2022-10-19T02:23:26.761Z,3.58
2022-10-19T02:26:14.949Z,4.00
2022-10-19T02:29:03.399Z,3.88
2022-10-19T02:31:51.032Z,3.85
2022-10-19T02:34:40.966Z,3.75
2022-10-19T02:37:30.200Z,4.15
2022-10-19T02:40:18.310Z,4.35
2022-10-19T02:43:13.324Z,4.05
2022-10-19T02:46:09.205Z,4.47
2022-10-19T02:48:59.350Z,3.45
2022-10-19T02:52:00.588Z,3.17
2022-10-19T02:54:49.816Z,4.03
2022-10-19T02:57:38.072Z,3.40
2022-10-19T03:00:25.935Z,3.38
2022-10-19T03:03:14.056Z,3.17
2022-10-19T03:06:02.346Z,3.00
2022-10-19T03:08:50.018Z,4.07
2022-10-19T03:11:38.854Z,3.67
2022-10-19T03:14:27.064Z,3.85
2022-10-19T03:17:15.385Z,4.38
2022-10-19T03:20:03.471Z,4.57
2022-10-19T03:25:46.102Z,3.70
2022-10-19T03:28:35.861Z,3.47
2022-10-19T03:31:23.499Z,4.10
2022-10-19T03:34:11.347Z,3.10
2022-10-19T03:36:59.380Z,3.55
2022-10-19T03:39:47.166Z,3.92
2022-10-19T03:42:35.645Z,4.90
2022-10-19T03:45:25.174Z,4.53
2022-10-19T03:48:13.013Z,4.55
2022-10-19T03:51:01.844Z,4.50
2022-10-19T03:53:53.662Z,4.25
2022-10-19T03:56:44.378Z,4.10
2022-10-19T03:59:32.449Z,3.40
2022-10-19T04:02:21.537Z,4.88
2022-10-19T04:05:10.404Z,4.50
2022-10-19T04:07:58.227Z,4.53
2022-10-19T04:10:46.439Z,4.55
2022-10-19T04:13:35.623Z,4.38
2022-10-19T04:16:24.991Z,4.47
2022-10-19T04:19:16.787Z,3.85
2022-10-19T04:22:04.710Z,2.95
2022-10-19T04:24:53.170Z,5.45
2022-10-19T04:27:40.692Z,4.38
2022-10-19T04:30:28.529Z,5.38
2022-10-19T04:33:16.774Z,5.75
2022-10-19T04:36:09.405Z,4.22
2022-10-19T04:38:56.972Z,4.00
2022-10-19T04:41:44.428Z,3.70
2022-10-19T04:44:32.425Z,3.60
2022-10-19T04:47:20.609Z,3.90
2022-10-19T04:50:08.454Z,3.42
2022-10-19T04:52:57.730Z,4.03
2022-10-19T04:55:45.521Z,3.58
2022-10-19T04:58:33.254Z,3.83
2022-10-19T05:01:23.605Z,4.47
2022-10-19T05:04:11.957Z,4.43
2022-10-19T05:07:00.137Z,5.55
2022-10-19T05:09:51.457Z,4.60
2022-10-19T05:12:39.209Z,4.93
2022-10-19T05:15:26.996Z,4.63
2022-10-19T05:18:14.510Z,3.97
2022-10-19T05:21:04.505Z,4.60
2022-10-19T05:23:55.299Z,4.40
2022-10-19T05:26:44.243Z,4.75
2022-10-19T05:29:33.882Z,4.95
2022-10-19T05:32:27.858Z,5.07
2022-10-19T05:35:18.638Z,4.80
2022-10-19T05:38:09.188Z,4.93
2022-10-19T05:40:58.059Z,5.28
2022-10-19T05:43:49.576Z,4.50
2022-10-19T05:46:38.101Z,3.78
2022-10-19T05:49:26.131Z,3.75
2022-10-19T05:52:15.702Z,3.67
2022-10-19T05:55:03.981Z,4.00
2022-10-19T05:57:52.446Z,3.60
2022-10-19T06:00:41.302Z,3.60
2022-10-19T06:03:30.345Z,3.85
2022-10-19T06:06:18.104Z,3.60
2022-10-19T06:09:19.769Z,3.60
2022-10-19T06:15:10.390Z,3.65
2022-10-19T06:18:00.570Z,3.38
2022-10-19T06:20:48.550Z,3.70
2022-10-19T06:23:37.279Z,3.58
2022-10-19T06:26:28.761Z,3.60
2022-10-19T06:29:18.345Z,3.47
2022-10-19T06:32:06.191Z,3.50
2022-10-19T06:34:56.614Z,3.50
2022-10-19T06:37:45.085Z,3.92
2022-10-19T06:40:32.706Z,4.15
2022-10-19T06:43:20.303Z,4.15
2022-10-19T06:46:11.529Z,3.67
2022-10-19T06:49:01.981Z,3.38
2022-10-19T06:51:51.183Z,3.40
2022-10-19T06:54:38.972Z,3.17
2022-10-19T06:57:27.306Z,2.97
2022-10-19T07:00:17.474Z,3.08
2022-10-19T07:03:05.514Z,2.95
2022-10-19T07:05:58.277Z,3.17
2022-10-19T07:08:47.776Z,3.85
2022-10-19T07:11:35.372Z,3.53
2022-10-19T07:14:24.892Z,2.80
2022-10-19T07:17:13.318Z,2.92
2022-10-19T07:20:00.984Z,3.10
2022-10-19T07:22:48.989Z,3.20
2022-10-19T07:25:37.899Z,2.97
2022-10-19T07:28:25.588Z,3.08
2022-10-19T07:31:19.589Z,3.05
2022-10-19T07:34:14.254Z,2.88
2022-10-19T07:37:01.987Z,2.40
2022-10-19T07:39:49.644Z,2.90
2022-10-19T07:42:39.234Z,3.10
2022-10-19T07:45:26.879Z,2.80
2022-10-19T07:48:14.512Z,3.08
2022-10-19T07:51:04.933Z,3.17
2022-10-19T07:53:54.349Z,3.15
2022-10-19T07:56:42.516Z,3.60
2022-10-19T07:59:31.847Z,3.30
2022-10-19T08:02:20.189Z,3.65
2022-10-19T08:05:11.589Z,3.83
2022-10-19T08:08:01.605Z,3.95
2022-10-19T08:10:50.881Z,3.55
2022-10-19T08:13:39.139Z,4.13
2022-10-19T08:16:32.816Z,3.17
2022-10-19T08:19:22.530Z,3.60
2022-10-19T08:22:10.825Z,3.67
2022-10-19T08:24:58.543Z,3.85
2022-10-19T08:27:45.977Z,4.25
2022-10-19T08:30:36.602Z,4.93
2022-10-19T08:33:26.492Z,5.82
2022-10-19T08:36:15.415Z,6.35
2022-10-19T08:39:04.997Z,6.30
2022-10-19T08:42:06.088Z,6.47
2022-10-19T08:45:28.234Z,7.78
2022-10-19T08:48:29.804Z,8.05
2022-10-19T08:51:17.482Z,8.13
2022-10-19T08:54:14.957Z,6.78
2022-10-19T08:57:16.301Z,6.50
2022-10-19T09:00:15.686Z,6.47
2022-10-19T09:03:23.123Z,6.32
2022-10-19T09:06:36.199Z,6.50
2022-10-19T09:09:24.741Z,6.35
2022-10-19T09:12:18.958Z,6.85
2022-10-19T09:15:13.989Z,5.93
2022-10-19T09:18:03.513Z,5.93
2022-10-19T09:20:56.984Z,6.50
2022-10-19T09:23:59.267Z,6.15
2022-10-19T09:26:54.491Z,5.30
2022-10-19T09:29:45.980Z,5.40
2022-10-19T09:32:38.956Z,6.07
2022-10-19T09:38:21.971Z,6.35
2022-10-19T09:41:19.577Z,6.88
2022-10-19T09:44:07.308Z,5.93
2022-10-19T09:47:11.530Z,6.63
2022-10-19T09:50:20.025Z,6.25
2022-10-19T09:53:22.104Z,5.72
2022-10-19T09:56:20.766Z,6.47
2022-10-19T09:59:23.438Z,6.93
2022-10-19T10:02:20.250Z,7.30
2022-10-19T10:05:15.857Z,7.18
2022-10-19T10:08:05.342Z,6.43
2022-10-19T10:11:08.024Z,7.72
2022-10-19T10:14:03.960Z,6.95
2022-10-19T10:16:57.880Z,9.35
2022-10-19T10:20:17.223Z,7.70
2022-10-19T10:23:10.491Z,7.20
2022-10-19T10:26:00.266Z,7.18
2022-10-19T10:28:51.019Z,7.72
2022-10-19T10:31:43.394Z,8.18
2022-10-19T10:35:00.988Z,7.27
2022-10-19T10:37:49.716Z,6.50
2022-10-19T10:40:39.771Z,7.85
2022-10-19T10:43:34.248Z,9.02
2022-10-19T10:46:28.064Z,9.90
2022-10-19T10:49:25.920Z,8.05
2022-10-19T10:52:17.216Z,10.55
2022-10-19T10:55:19.180Z,8.55
2022-10-19T10:58:19.732Z,12.90
2022-10-19T11:01:19.247Z,12.20
2022-10-19T11:04:12.384Z,13.10
2022-10-19T11:07:10.526Z,16.92
2022-10-19T11:10:00.544Z,13.45
2022-10-19T11:12:52.848Z,15.15
2022-10-19T11:15:52.011Z,14.07
2022-10-19T11:18:45.932Z,12.10
2022-10-19T11:21:39.214Z,15.40
2022-10-19T11:24:39.807Z,10.63
2022-10-19T11:27:39.927Z,10.95
2022-10-19T11:30:28.824Z,12.95
2022-10-19T11:33:34.964Z,15.77
2022-10-19T11:36:41.792Z,10.80
2022-10-19T11:39:43.455Z,11.70
2022-10-19T11:42:44.722Z,11.48
2022-10-19T11:45:45.734Z,10.45
2022-10-19T11:49:16.536Z,12.75
2022-10-19T11:52:19.866Z,10.05
2022-10-19T11:58:13.792Z,10.40
2022-10-19T12:01:10.521Z,9.90
2022-10-19T12:04:29.190Z,9.88
2022-10-19T12:07:33.417Z,10.82
2022-10-19T12:10:29.929Z,9.43
2022-10-19T12:13:23.070Z,9.32
2022-10-19T12:16:15.453Z,10.10
2022-10-19T12:19:06.787Z,7.03
2022-10-19T12:21:56.634Z,10.88
2022-10-19T12:24:44.570Z,9.43
2022-10-19T12:27:37.611Z,9.43
2022-10-19T12:30:26.270Z,9.70
2022-10-19T12:33:22.410Z,12.30
2022-10-19T12:36:28.774Z,9.93
2022-10-19T12:39:23.994Z,10.27
2022-10-19T12:42:21.106Z,9.30
2022-10-19T12:45:21.999Z,8.10
2022-10-19T12:48:22.145Z,6.55
2022-10-19T12:51:16.086Z,7.47
2022-10-19T12:54:10.657Z,7.60
2022-10-19T12:57:01.574Z,7.50
2022-10-19T13:00:01.598Z,9.05
2022-10-19T13:03:00.684Z,8.90
2022-10-19T13:05:57.956Z,7.90
2022-10-19T13:08:55.069Z,9.65
2022-10-19T13:12:29.481Z,9.20
2022-10-19T13:15:53.488Z,8.50
2022-10-19T13:19:22.787Z,9.07
2022-10-19T13:22:27.251Z,9.05
2022-10-19T13:25:27.323Z,9.85
2022-10-19T13:28:58.186Z,9.07
2022-10-19T13:31:46.322Z,8.95
2022-10-19T13:34:35.656Z,9.10
2022-10-19T13:37:23.658Z,10.73
2022-10-19T13:40:24.523Z,11.25
2022-10-19T13:43:20.330Z,9.98
2022-10-19T13:46:17.009Z,8.38
2022-10-19T13:49:27.760Z,10.65
2022-10-19T13:52:52.270Z,11.13
2022-10-19T13:56:33.901Z,9.82
2022-10-19T13:59:46.965Z,9.35
2022-10-19T14:02:56.434Z,10.27
2022-10-19T14:05:56.447Z,7.90
2022-10-19T14:09:15.280Z,7.53
2022-10-19T14:12:08.212Z,7.32
2022-10-19T14:14:58.248Z,7.32
2022-10-19T14:17:46.545Z,8.30
2022-10-19T14:20:39.552Z,8.60
2022-10-19T14:23:32.717Z,7.68
2022-10-19T14:26:24.332Z,8.60
2022-10-19T14:29:14.782Z,7.00
2022-10-19T14:32:03.530Z,8.65
2022-10-19T14:34:52.246Z,8.02
2022-10-19T14:37:43.764Z,6.75
2022-10-19T14:40:33.901Z,6.32
2022-10-19T14:43:25.057Z,5.55
2022-10-19T14:46:15.351Z,5.57
2022-10-19T14:49:05.818Z,4.75
2022-10-19T14:51:59.347Z,4.88
2022-10-19T14:54:49.773Z,4.40
2022-10-19T14:57:41.200Z,7.38
2022-10-19T15:00:34.021Z,32.58
2022-10-19T15:06:19.629Z,9.07
2022-10-19T15:22:17.963Z,4.90
2022-10-19T15:25:31.041Z,5.07
2022-10-19T15:28:36.025Z,5.68
2022-10-19T15:31:29.180Z,6.63
2022-10-19T15:34:29.236Z,6.55
2022-10-19T15:37:23.453Z,7.47
2022-10-19T15:40:15.007Z,7.90
2022-10-19T15:43:35.847Z,7.15
2022-10-19T15:46:28.326Z,6.15
2022-10-19T15:49:59.273Z,5.93
2022-10-19T15:52:48.466Z,4.97
2022-10-19T15:55:36.323Z,5.28
2022-10-19T15:58:23.887Z,4.35
2022-10-19T16:01:18.173Z,3.90
2022-10-19T16:04:06.557Z,4.15
2022-10-19T16:06:55.172Z,4.22
2022-10-19T16:09:44.236Z,4.15
2022-10-19T16:12:31.739Z,5.65
2022-10-19T16:15:23.547Z,6.57
2022-10-19T16:18:12.467Z,6.18
2022-10-19T16:21:00.405Z,4.60
2022-10-19T16:23:48.469Z,4.00
2022-10-19T16:26:37.650Z,4.25
2022-10-19T16:29:28.232Z,4.53
2022-10-19T16:32:17.115Z,4.57
2022-10-19T16:35:04.929Z,5.10
2022-10-19T16:37:54.759Z,5.05
2022-10-19T16:40:42.208Z,4.78
2022-10-19T16:43:31.425Z,4.68
2022-10-19T16:46:23.886Z,5.53
2022-10-19T16:49:11.450Z,5.63
2022-10-19T16:52:00.877Z,5.60
2022-10-19T16:54:48.537Z,5.68
2022-10-19T16:57:36.956Z,5.53
2022-10-19T17:00:26.001Z,4.88
2022-10-19T17:03:13.921Z,5.32
2022-10-19T17:06:03.931Z,5.85
2022-10-19T17:09:23.628Z,5.68
2022-10-19T17:11:59.509Z,5.78
2022-10-19T17:14:46.957Z,6.28
2022-10-19T17:17:36.688Z,6.63
2022-10-19T17:20:25.185Z,5.80
2022-10-19T17:23:12.846Z,6.72
2022-10-19T17:26:00.527Z,6.18
2022-10-19T17:28:49.236Z,6.53
2022-10-19T17:31:38.602Z,5.93
2022-10-19T17:34:28.283Z,6.70
2022-10-19T17:37:15.931Z,6.97
2022-10-19T17:40:03.271Z,6.80
2022-10-19T17:42:50.644Z,6.47
2022-10-19T17:45:38.266Z,6.45
2022-10-19T17:48:25.771Z,6.13
2022-10-19T17:51:17.722Z,6.30
2022-10-19T17:54:08.728Z,6.75
2022-10-19T17:56:56.147Z,6.38
2022-10-19T17:59:52.675Z,5.95
2022-10-19T18:02:40.866Z,6.78
2022-10-19T18:05:29.051Z,7.93
2022-10-19T18:08:18.024Z,8.68
2022-10-19T18:11:10.025Z,7.55
2022-10-19T18:14:01.974Z,6.88
2022-10-19T18:16:49.373Z,7.05
2022-10-19T18:19:40.097Z,7.70
2022-10-19T18:22:27.625Z,7.05
2022-10-19T18:25:53.987Z,6.97
2022-10-19T18:28:43.282Z,7.00
2022-10-19T18:31:33.238Z,7.85
2022-10-19T18:34:39.817Z,7.03
2022-10-19T18:37:27.702Z,7.38
2022-10-19T18:40:19.362Z,7.90
2022-10-19T18:43:09.568Z,8.00
2022-10-19T18:46:01.298Z,6.80
2022-10-19T18:48:52.483Z,6.63
2022-10-19T18:51:40.663Z,5.90
2022-10-19T18:54:28.318Z,6.40
2022-10-19T18:57:20.085Z,6.40
2022-10-19T19:00:16.281Z,5.85
2022-10-19T19:03:05.869Z,6.60
2022-10-19T19:05:55.855Z,6.30
2022-10-19T19:08:46.066Z,7.30
2022-10-19T19:11:37.991Z,6.35
2022-10-19T19:14:45.074Z,7.05
2022-10-19T19:17:37.529Z,6.25
2022-10-19T19:20:27.328Z,6.43
2022-10-19T19:23:16.682Z,6.30
2022-10-19T19:26:06.378Z,6.50
2022-10-19T19:28:57.353Z,6.25
2022-10-19T19:31:52.891Z,7.57
2022-10-19T19:34:54.479Z,6.22
2022-10-19T19:37:46.562Z,6.20
2022-10-19T19:40:40.609Z,6.47
2022-10-19T19:43:38.254Z,6.47
2022-10-19T19:46:31.218Z,6.25
2022-10-19T19:49:25.103Z,6.57
2022-10-19T19:52:13.964Z,7.10
2022-10-19T19:55:11.208Z,6.80
2022-10-19T19:58:01.682Z,7.85
2022-10-19T20:00:51.903Z,7.55
2022-10-19T20:03:39.989Z,8.23
2022-10-19T20:06:39.947Z,7.80
2022-10-19T20:09:29.179Z,7.18
2022-10-19T20:12:16.978Z,7.32
2022-10-19T20:15:04.669Z,7.50
2022-10-19T20:17:52.202Z,7.18
2022-10-19T20:20:44.180Z,7.80
2022-10-19T20:23:36.650Z,7.40
2022-10-19T20:26:31.586Z,7.53
2022-10-19T20:29:19.412Z,6.70
2022-10-19T20:32:10.096Z,7.25
2022-10-19T20:34:57.832Z,7.35
2022-10-19T20:37:59.429Z,6.60
2022-10-19T20:40:48.352Z,6.82
2022-10-19T20:43:39.310Z,6.53
2022-10-19T20:46:29.943Z,6.57
2022-10-19T20:49:19.618Z,7.05
2022-10-19T20:52:11.101Z,6.55
2022-10-19T20:54:59.053Z,6.32
2022-10-19T20:57:47.806Z,6.90
2022-10-19T21:00:35.140Z,6.28
2022-10-19T21:03:27.006Z,6.30
2022-10-19T21:06:17.785Z,5.97
2022-10-19T21:09:06.108Z,5.82
2022-10-19T21:12:05.600Z,7.18
2022-10-19T21:14:56.046Z,6.45
2022-10-19T21:17:49.209Z,6.43
2022-10-19T21:23:26.406Z,5.85
2022-10-19T21:26:22.749Z,6.20
2022-10-19T21:29:14.533Z,6.32
2022-10-19T21:32:04.636Z,6.65
2022-10-19T21:34:55.037Z,6.35
2022-10-19T21:37:50.294Z,6.20
2022-10-19T21:40:40.971Z,5.88
2022-10-19T21:43:30.893Z,5.78
2022-10-19T21:46:24.109Z,6.13
2022-10-19T21:49:13.987Z,5.72
2022-10-19T21:52:09.724Z,6.00
2022-10-19T21:55:02.189Z,5.85
2022-10-19T21:57:50.062Z,5.82
2022-10-19T22:00:42.683Z,5.43
2022-10-19T22:03:30.310Z,6.30
2022-10-19T22:06:21.843Z,5.30
2022-10-19T22:09:13.431Z,5.28
2022-10-19T22:12:00.977Z,6.13
2022-10-19T22:14:48.887Z,5.95
2022-10-19T22:17:38.999Z,5.85
2022-10-19T22:20:26.673Z,6.35
2022-10-19T22:23:15.613Z,5.55
2022-10-19T22:26:03.380Z,5.70
2022-10-19T22:28:51.615Z,5.28
2022-10-19T22:31:39.906Z,5.63
2022-10-19T22:34:27.637Z,5.78
2022-10-19T22:37:15.187Z,5.97
2022-10-19T22:40:04.485Z,5.22
2022-10-19T22:42:52.674Z,5.40
2022-10-19T22:45:40.801Z,5.90
2022-10-19T22:48:33.722Z,5.63
2022-10-19T22:51:23.418Z,5.57
2022-10-19T22:54:13.423Z,6.15
2022-10-19T22:57:05.812Z,5.32
2022-10-19T22:59:55.278Z,5.05
2022-10-19T23:02:43.027Z,4.80
2022-10-19T23:05:30.940Z,5.65
2022-10-19T23:08:18.866Z,5.15
2022-10-19T23:11:07.088Z,5.35
2022-10-19T23:13:55.843Z,5.57
2022-10-19T23:16:43.342Z,5.38
2022-10-19T23:19:31.532Z,5.10
2022-10-19T23:22:21.342Z,5.20
2022-10-19T23:25:10.287Z,4.60
2022-10-19T23:27:57.923Z,5.45
2022-10-19T23:30:47.014Z,5.35
2022-10-19T23:33:35.559Z,4.78
2022-10-19T23:36:27.904Z,5.57
2022-10-19T23:39:15.835Z,5.27
2022-10-19T23:42:03.346Z,5.07
2022-10-19T23:44:50.768Z,5.22
2022-10-19T23:47:40.355Z,4.80
2022-10-19T23:50:27.898Z,5.47
2022-10-19T23:53:15.275Z,4.93
2022-10-19T23:56:05.634Z,5.00
2022-10-19T23:58:54.417Z,5.95
